createdAt,value
2023-03-17T00:01:24.580Z,54.86
2023-03-17T00:05:24.864Z,54.78
2023-03-17T00:09:24.827Z,55.57
2023-03-17T00:13:24.727Z,54.56
2023-03-17T00:17:24.767Z,55.06
2023-03-17T00:21:24.721Z,55.30
2023-03-17T00:25:24.649Z,55.67
2023-03-17T00:29:24.618Z,55.90
2023-03-17T00:33:24.600Z,55.77
2023-03-17T00:37:24.621Z,55.98
2023-03-17T00:41:24.503Z,55.42
2023-03-17T00:45:24.502Z,55.62
2023-03-17T00:49:25.201Z,55.58
2023-03-17T00:53:24.406Z,55.39
2023-03-17T00:57:24.320Z,55.94
2023-03-17T01:01:24.344Z,56.41
2023-03-17T01:05:24.321Z,57.60
2023-03-17T01:09:24.309Z,57.35
2023-03-17T01:13:24.208Z,57.44
2023-03-17T01:17:24.188Z,57.36
2023-03-17T01:21:24.155Z,57.45
2023-03-17T01:25:24.282Z,57.17
2023-03-17T01:29:24.361Z,56.78
2023-03-17T01:33:24.349Z,56.39
2023-03-17T01:37:24.317Z,56.24
2023-03-17T01:41:24.789Z,54.81
2023-03-17T01:45:24.382Z,54.35
2023-03-17T01:49:24.246Z,54.28
2023-03-17T01:53:24.210Z,54.09
2023-03-17T01:57:24.241Z,53.85
2023-03-17T02:01:24.262Z,53.24
2023-03-17T02:05:24.156Z,53.44
2023-03-17T02:09:24.114Z,53.55
2023-03-17T02:13:24.076Z,53.99
2023-03-17T02:17:24.060Z,53.88
2023-03-17T02:22:35.864Z,54.60
2023-03-17T02:26:35.843Z,55.31
2023-03-17T02:30:35.805Z,55.90
2023-03-17T02:34:36.073Z,55.24
2023-03-17T02:38:35.843Z,55.00
2023-03-17T02:42:36.138Z,54.65
2023-03-17T02:46:36.102Z,54.73
2023-03-17T02:50:36.304Z,55.69
2023-03-17T02:54:36.303Z,56.01
2023-03-17T02:58:36.499Z,56.16
2023-03-17T03:02:36.699Z,56.57
2023-03-17T03:06:36.730Z,56.77
2023-03-17T03:10:36.830Z,56.57
2023-03-17T03:14:36.970Z,56.50
2023-03-17T03:18:36.961Z,57.38
2023-03-17T03:22:37.101Z,57.64
2023-03-17T03:26:37.065Z,58.29
2023-03-17T03:30:37.145Z,58.31
2023-03-17T03:34:37.228Z,58.55
2023-03-17T03:38:37.232Z,58.56
2023-03-17T03:42:37.309Z,58.98
2023-03-17T03:46:37.398Z,58.91
2023-03-17T03:50:37.510Z,58.55
2023-03-17T03:54:37.662Z,58.31
2023-03-17T03:58:37.774Z,57.73
2023-03-17T04:02:38.023Z,57.82
2023-03-17T04:06:38.005Z,58.47
2023-03-17T04:10:38.058Z,58.32
2023-03-17T04:14:38.117Z,58.51
2023-03-17T04:18:38.224Z,58.83
2023-03-17T04:22:38.354Z,58.45
2023-03-17T04:26:38.430Z,58.06
2023-03-17T04:30:38.494Z,57.67
2023-03-17T04:34:38.565Z,57.52
2023-03-17T04:38:38.656Z,57.60
2023-03-17T04:42:38.738Z,58.42
2023-03-17T04:46:38.869Z,58.11
2023-03-17T04:50:39.093Z,59.35
2023-03-17T04:54:39.160Z,59.82
2023-03-17T04:58:39.432Z,59.95
2023-03-17T05:02:39.490Z,60.20
2023-03-17T05:06:39.518Z,60.74
2023-03-17T05:10:39.722Z,60.27
2023-03-17T05:14:39.931Z,59.67
2023-03-17T05:18:40.007Z,59.60
2023-03-17T05:22:40.089Z,59.62
2023-03-17T05:26:40.200Z,59.39
2023-03-17T05:30:40.295Z,59.40
2023-03-17T05:34:40.457Z,59.09
2023-03-17T05:38:40.685Z,58.15
2023-03-17T05:42:40.759Z,58.45
2023-03-17T05:46:40.833Z,57.85
2023-03-17T05:50:40.910Z,57.86
2023-03-17T05:54:40.997Z,58.02
2023-03-17T05:58:41.167Z,57.73
2023-03-17T06:02:41.287Z,57.58
2023-03-17T06:06:41.346Z,56.58
2023-03-17T06:10:41.429Z,55.71
2023-03-17T06:14:41.507Z,56.20
2023-03-17T06:18:41.587Z,55.40
2023-03-17T06:22:55.278Z,54.62
2023-03-17T06:26:42.573Z,54.90
2023-03-17T06:30:42.282Z,54.69
2023-03-17T06:34:42.062Z,54.70
2023-03-17T06:38:42.858Z,54.30
2023-03-17T06:42:41.996Z,54.03
2023-03-17T06:46:43.158Z,53.93
2023-03-17T06:50:42.552Z,53.94
2023-03-17T06:54:44.160Z,53.73
2023-03-17T06:58:42.882Z,54.02
2023-03-17T07:02:48.777Z,54.21
2023-03-17T07:06:42.535Z,53.82
2023-03-17T07:10:43.553Z,54.25
2023-03-17T07:14:42.494Z,53.76
2023-03-17T07:18:42.455Z,53.39
2023-03-17T07:22:42.848Z,53.60
2023-03-17T07:26:42.402Z,54.92
2023-03-17T07:30:42.380Z,52.33
2023-03-17T07:34:42.803Z,51.23
2023-03-17T07:38:43.567Z,51.51
2023-03-17T07:42:42.385Z,51.85
2023-03-17T07:46:42.263Z,51.61
2023-03-17T07:50:42.356Z,51.08
2023-03-17T07:54:43.112Z,50.94
2023-03-17T07:58:42.490Z,51.45
2023-03-17T08:02:42.700Z,51.05
2023-03-17T08:06:43.129Z,50.81
2023-03-17T08:10:43.534Z,50.07
2023-03-17T08:14:42.988Z,48.88
2023-03-17T08:18:43.291Z,49.19
2023-03-17T08:22:44.102Z,47.65
2023-03-17T08:26:43.498Z,47.23
2023-03-17T08:30:43.825Z,45.20
2023-03-17T08:34:43.875Z,45.03
2023-03-17T08:38:45.447Z,42.94
2023-03-17T08:42:44.026Z,42.17
2023-03-17T08:46:45.129Z,42.31
2023-03-17T08:50:45.192Z,41.97
2023-03-17T08:54:44.424Z,40.85
2023-03-17T08:58:46.980Z,40.81
2023-03-17T09:02:45.767Z,40.36
2023-03-17T09:07:01.792Z,39.39
2023-03-17T09:10:45.893Z,39.54
2023-03-17T09:14:45.242Z,38.46
2023-03-17T09:18:45.729Z,39.54
2023-03-17T09:22:44.877Z,39.97
2023-03-17T09:26:45.222Z,39.45
2023-03-17T09:30:45.225Z,38.70
2023-03-17T09:34:46.329Z,39.18
2023-03-17T09:38:52.250Z,36.49
2023-03-17T09:42:45.551Z,37.88
2023-03-17T09:46:46.877Z,36.24
2023-03-17T09:50:46.116Z,33.50
2023-03-17T09:54:45.474Z,33.04
2023-03-17T09:58:45.440Z,30.88
2023-03-17T10:02:45.336Z,31.98
2023-03-17T10:06:45.702Z,29.86
2023-03-17T10:10:46.711Z,28.52
2023-03-17T10:14:46.067Z,31.94
2023-03-17T10:18:45.572Z,29.87
2023-03-17T10:22:45.556Z,29.38
2023-03-17T10:26:45.731Z,31.78
2023-03-17T10:30:46.411Z,29.16
2023-03-17T10:34:46.323Z,32.01
2023-03-17T10:38:46.185Z,27.74
2023-03-17T10:42:46.692Z,28.77
2023-03-17T10:46:46.518Z,29.01
2023-03-17T10:50:48.581Z,27.53
2023-03-17T10:54:46.462Z,25.99
2023-03-17T10:58:46.631Z,26.57
2023-03-17T11:02:47.141Z,26.51
2023-03-17T11:06:46.283Z,24.84
2023-03-17T11:10:46.292Z,25.89
2023-03-17T11:14:46.418Z,24.52
2023-03-17T11:18:46.194Z,26.16
2023-03-17T11:22:46.171Z,26.60
2023-03-17T11:26:46.127Z,26.67
2023-03-17T11:30:46.340Z,24.67
2023-03-17T11:34:46.711Z,26.01
2023-03-17T11:38:46.140Z,23.06
2023-03-17T11:42:45.946Z,24.58
2023-03-17T11:46:46.097Z,25.24
2023-03-17T11:50:46.284Z,23.74
2023-03-17T11:54:46.355Z,25.48
2023-03-17T11:58:46.683Z,25.40
2023-03-17T12:02:46.704Z,24.05
2023-03-17T12:06:46.860Z,24.03
2023-03-17T12:10:46.926Z,27.81
2023-03-17T12:14:47.148Z,25.50
2023-03-17T12:18:47.806Z,24.63
2023-03-17T12:22:47.374Z,25.39
2023-03-17T12:26:47.402Z,23.67
2023-03-17T12:30:47.469Z,24.33
2023-03-17T12:34:47.606Z,22.42
2023-03-17T12:38:47.731Z,22.83
2023-03-17T12:42:47.820Z,22.45
2023-03-17T12:46:48.058Z,20.89
2023-03-17T12:50:48.069Z,21.94
2023-03-17T12:54:48.281Z,22.57
2023-03-17T12:58:49.129Z,20.70
2023-03-17T13:02:48.553Z,21.95
2023-03-17T13:06:48.727Z,21.54
2023-03-17T13:10:48.786Z,22.87
2023-03-17T13:14:48.907Z,21.37
2023-03-17T13:18:49.655Z,22.62
2023-03-17T13:22:48.943Z,21.72
2023-03-17T13:26:49.190Z,22.67
2023-03-17T13:30:49.167Z,22.13
2023-03-17T13:34:49.268Z,20.44
2023-03-17T13:39:05.113Z,19.44
2023-03-17T13:42:50.339Z,18.73
2023-03-17T13:46:49.812Z,22.14
2023-03-17T13:50:49.265Z,20.93
2023-03-17T13:54:49.300Z,20.94
2023-03-17T13:58:49.414Z,19.83
2023-03-17T14:02:49.488Z,20.57
2023-03-17T14:06:49.616Z,23.03
2023-03-17T14:10:49.795Z,22.22
2023-03-17T14:14:50.023Z,19.83
2023-03-17T14:18:50.709Z,21.05
2023-03-17T14:22:50.229Z,21.90
2023-03-17T14:26:50.678Z,20.78
2023-03-17T14:30:50.421Z,24.03
2023-03-17T14:34:50.470Z,19.73
2023-03-17T14:38:50.670Z,20.51
2023-03-17T14:42:50.747Z,21.03
2023-03-17T14:46:50.787Z,19.86
2023-03-17T14:50:51.003Z,17.94
2023-03-17T14:54:51.133Z,17.90
2023-03-17T14:58:51.442Z,15.43
2023-03-17T15:02:52.239Z,16.36
2023-03-17T15:06:51.823Z,16.24
2023-03-17T15:10:52.248Z,15.75
2023-03-17T15:14:51.951Z,15.68
2023-03-17T15:18:52.135Z,16.64
2023-03-17T15:22:52.306Z,17.00
2023-03-17T15:26:52.341Z,16.55
2023-03-17T15:30:52.878Z,16.44
2023-03-17T15:34:52.542Z,17.47
2023-03-17T15:38:52.791Z,18.14
2023-03-17T15:42:52.783Z,17.54
2023-03-17T15:46:52.871Z,17.54
2023-03-17T15:50:53.023Z,17.46
2023-03-17T15:54:53.167Z,18.03
2023-03-17T15:58:53.337Z,17.33
2023-03-17T16:02:53.448Z,17.55
2023-03-17T16:06:53.601Z,18.06
2023-03-17T16:10:53.722Z,18.12
2023-03-17T16:14:53.882Z,18.54
2023-03-17T16:18:54.046Z,19.55
2023-03-17T16:22:54.220Z,20.28
2023-03-17T16:26:54.314Z,19.50
2023-03-17T16:30:54.548Z,19.53
2023-03-17T16:34:54.665Z,20.48
2023-03-17T16:38:54.747Z,21.37
2023-03-17T16:42:54.798Z,21.69
2023-03-17T16:46:55.057Z,22.50
2023-03-17T16:50:55.068Z,21.92
2023-03-17T16:54:55.044Z,22.65
2023-03-17T16:58:55.210Z,24.15
2023-03-17T17:02:55.332Z,26.03
2023-03-17T17:06:55.351Z,26.08
2023-03-17T17:10:55.532Z,26.36
2023-03-17T17:14:55.685Z,27.81
2023-03-17T17:18:55.904Z,27.96
2023-03-17T17:22:55.974Z,27.80
2023-03-17T17:26:56.756Z,27.12
2023-03-17T17:30:56.103Z,26.85
2023-03-17T17:34:56.814Z,26.77
2023-03-17T17:38:56.306Z,27.50
2023-03-17T17:42:56.428Z,27.71
2023-03-17T17:46:56.644Z,28.67
2023-03-17T17:50:56.699Z,29.17
2023-03-17T17:54:56.906Z,29.82
2023-03-17T17:58:57.044Z,29.34
2023-03-17T18:02:57.215Z,28.50
2023-03-17T18:06:57.276Z,29.77
2023-03-17T18:10:57.464Z,29.93
2023-03-17T18:14:57.539Z,29.33
2023-03-17T18:18:57.723Z,29.66
2023-03-17T18:22:57.792Z,30.19
2023-03-17T18:26:57.969Z,30.34
2023-03-17T18:30:58.145Z,30.83
2023-03-17T18:34:58.327Z,30.80
2023-03-17T18:38:58.277Z,32.58
2023-03-17T18:42:58.362Z,33.59
2023-03-17T18:46:58.452Z,33.50
2023-03-17T18:50:58.626Z,32.15
2023-03-17T18:54:58.792Z,34.25
2023-03-17T18:58:58.876Z,36.15
2023-03-17T19:02:59.107Z,36.56
2023-03-17T19:06:59.222Z,35.33
2023-03-17T19:10:59.312Z,37.01
2023-03-17T19:14:59.481Z,38.62
2023-03-17T19:18:59.661Z,38.14
2023-03-17T19:22:59.825Z,37.15
2023-03-17T19:27:00.016Z,35.32
2023-03-17T19:31:00.159Z,35.18
2023-03-17T19:35:00.275Z,35.21
2023-03-17T19:39:00.341Z,35.31
2023-03-17T19:43:00.400Z,35.52
2023-03-17T19:47:00.595Z,36.87
2023-03-17T19:51:00.575Z,38.05
2023-03-17T19:56:01.435Z,36.78
2023-03-17T20:00:01.471Z,36.27
2023-03-17T20:04:01.320Z,35.87
2023-03-17T20:08:01.215Z,37.85
2023-03-17T20:12:01.123Z,37.94
2023-03-17T20:16:01.301Z,38.82
2023-03-17T20:20:01.063Z,38.89
2023-03-17T20:24:00.996Z,39.26
2023-03-17T20:28:00.993Z,39.17
2023-03-17T20:32:00.985Z,37.34
2023-03-17T20:36:00.991Z,38.68
2023-03-17T20:40:00.907Z,38.50
2023-03-17T20:44:00.888Z,38.20
2023-03-17T20:48:01.998Z,39.07
2023-03-17T20:52:01.211Z,38.88
2023-03-17T20:56:02.015Z,39.16
2023-03-17T21:00:01.624Z,39.09
2023-03-17T21:04:01.568Z,40.88
2023-03-17T21:08:01.645Z,40.90
2023-03-17T21:12:01.728Z,41.02
2023-03-17T21:16:01.838Z,41.37
2023-03-17T21:20:01.953Z,40.57
2023-03-17T21:24:02.228Z,41.20
2023-03-17T21:28:02.252Z,42.34
2023-03-17T21:32:02.430Z,42.69
2023-03-17T21:36:02.688Z,43.25
2023-03-17T21:40:02.852Z,42.98
2023-03-17T21:44:03.546Z,43.33
2023-03-17T21:48:02.980Z,42.66
2023-03-17T21:52:03.294Z,44.13
2023-03-17T21:56:03.430Z,44.32
2023-03-17T22:00:03.511Z,45.37
2023-03-17T22:04:03.594Z,46.20
2023-03-17T22:08:04.079Z,46.78
2023-03-17T22:12:03.869Z,47.33
2023-03-17T22:16:03.811Z,46.30
2023-03-17T22:20:04.027Z,45.32
2023-03-17T22:24:04.169Z,46.09
2023-03-17T22:28:04.193Z,47.85
2023-03-17T22:32:04.400Z,46.35
2023-03-17T22:36:04.353Z,46.90
2023-03-17T22:40:04.582Z,47.50
2023-03-17T22:44:05.033Z,47.37
2023-03-17T22:48:05.643Z,47.60
2023-03-17T22:52:04.607Z,46.70
2023-03-17T22:56:04.778Z,48.06
2023-03-17T23:00:04.879Z,48.85
2023-03-17T23:04:04.888Z,49.58
2023-03-17T23:08:04.996Z,49.79
2023-03-17T23:12:05.173Z,50.41
2023-03-17T23:16:05.050Z,50.67
2023-03-17T23:20:05.213Z,50.18
2023-03-17T23:24:05.367Z,50.59
2023-03-17T23:28:05.476Z,50.79
2023-03-17T23:32:06.064Z,51.17
2023-03-17T23:36:05.721Z,51.48
2023-03-17T23:40:05.754Z,50.42
2023-03-17T23:44:05.981Z,50.87
2023-03-17T23:48:06.042Z,48.74
2023-03-17T23:52:06.125Z,50.00
2023-03-17T23:56:06.297Z,50.03
